<?xml version='1.0' encoding='UTF-8'?><gpx version="1.1" creator="JPX - https://github.com/jenetics/jpx" xmlns="http://www.topografix.com/GPX/1/1"><trk><trkseg><trkpt lat="42.783953530230946" lon="10.166664382668905"><ele>397.99999999999994</ele><time>2026-05-01T14:40:01Z</time></trkpt><trkpt lat="42.783893718937925" lon="10.166597020841"><ele>398.0</ele><time>2026-05-01T14:40:22Z</time></trkpt><trkpt lat="42.783820834709125" lon="10.16661634588885"><ele>398.0</ele><time>2026-05-01T14:40:34.999Z</time></trkpt><trkpt lat="42.783763536158" lon="10.166577142864682"><ele>398.0</ele><time>2026-05-01T14:40:43.999Z</time></trkpt><trkpt lat="42.78374781939043" lon="10.166664496645623"><ele>398.0</ele><time>2026-05-01T14:40:53.999Z</time></trkpt><trkpt lat="42.78369726613549" lon="10.16659077918403"><ele>397.99999999999994</ele><time>2026-05-01T14:41:02.999Z</time></trkpt><trkpt lat="42.78362533097651" lon="10.166627383199422"><ele>398.0</ele><time>2026-05-01T14:41:14.999Z</time></trkpt><trkpt lat="42.78357807177897" lon="10.166692192769029"><ele>397.99999999999994</ele><time>2026-05-01T14:41:24.999Z</time></trkpt><trkpt lat="42.78351529776043" lon="10.166703452826626"><ele>398.0</ele><time>2026-05-01T14:41:37.999Z</time></trkpt><trkpt lat="42.783457723334244" lon="10.166746049375572"><ele>398.0</ele><time>2026-05-01T14:41:50Z</time></trkpt><trkpt lat="42.78340188019016" lon="10.166796238353557"><ele>398.0</ele><time>2026-05-01T14:42:02Z</time></trkpt><trkpt lat="42.78334066970462" lon="10.166841354028252"><ele>398.0</ele><time>2026-05-01T14:42:24Z</time></trkpt><trkpt lat="42.78327482571839" lon="10.166833982866251"><ele>397.99999999999994</ele><time>2026-05-01T14:42:37.999Z</time></trkpt><trkpt lat="42.7832006103777" lon="10.166815137022015"><ele>398.0</ele><time>2026-05-01T14:42:53.999Z</time></trkpt><trkpt lat="42.78314048412514" lon="10.166857457187172"><ele>403.2857142857143</ele><time>2026-05-01T14:43:15.999Z</time></trkpt><trkpt lat="42.783105847885444" lon="10.166936095148376"><ele>408.57142857142856</ele><time>2026-05-01T14:43:39.999Z</time></trkpt><trkpt lat="42.78303843331368" lon="10.167008548250873"><ele>413.8571428571429</ele><time>2026-05-01T14:44:01Z</time></trkpt><trkpt lat="42.78297041678905" lon="10.167010457478586"><ele>419.1428571428571</ele><time>2026-05-01T14:44:17Z</time></trkpt><trkpt lat="42.782913046739004" lon="10.16695982375029"><ele>424.42857142857144</ele><time>2026-05-01T14:44:30Z</time></trkpt><trkpt lat="42.78286247735935" lon="10.16690253412502"><ele>429.7142857142857</ele><time>2026-05-01T14:44:48.999Z</time></trkpt><trkpt lat="42.78283391959265" lon="10.166826083574422"><ele>435.0</ele><time>2026-05-01T14:45:07.999Z</time></trkpt><trkpt lat="42.78277171779762" lon="10.166887198846318"><ele>435.0</ele><time>2026-05-01T14:45:32.999Z</time></trkpt><trkpt lat="42.78270704858298" lon="10.16689858694151"><ele>435.0</ele><time>2026-05-01T14:45:45.999Z</time></trkpt><trkpt lat="42.782622012535626" lon="10.16691913839846"><ele>435.0</ele><time>2026-05-01T14:46:09Z</time></trkpt><trkpt lat="42.78255227901731" lon="10.166951751738562"><ele>435.0</ele><time>2026-05-01T14:46:22Z</time></trkpt><trkpt lat="42.78248245584679" lon="10.166931450627757"><ele>435.0</ele><time>2026-05-01T14:46:38Z</time></trkpt><trkpt lat="42.78238199833162" lon="10.166972071683398"><ele>435.0</ele><time>2026-05-01T14:46:55.999Z</time></trkpt><trkpt lat="42.78227573906729" lon="10.166983628302699"><ele>440.42857142857144</ele><time>2026-05-01T14:47:31.999Z</time></trkpt><trkpt lat="42.78221084949973" lon="10.166995084083508"><ele>445.8571428571429</ele><time>2026-05-01T14:47:48.999Z</time></trkpt><trkpt lat="42.782170472053416" lon="10.167064097595347"><ele>451.28571428571433</ele><time>2026-05-01T14:48:03Z</time></trkpt><trkpt lat="42.78214115532994" lon="10.167140658905849"><ele>456.7142857142857</ele><time>2026-05-01T14:48:20Z</time></trkpt><trkpt lat="42.78207771535431" lon="10.167154928064218"><ele>462.1428571428571</ele><time>2026-05-01T14:48:33Z</time></trkpt><trkpt lat="42.78202140756588" lon="10.167203134190537"><ele>467.5714285714286</ele><time>2026-05-01T14:48:46Z</time></trkpt><trkpt lat="42.78196962026254" lon="10.167257917513602"><ele>473.0</ele><time>2026-05-01T14:49:00.999Z</time></trkpt><trkpt lat="42.78190463995499" lon="10.167255653376811"><ele>473.0</ele><time>2026-05-01T14:49:11.999Z</time></trkpt><trkpt lat="42.781850202595884" lon="10.167301859853852"><ele>473.0</ele><time>2026-05-01T14:49:31.999Z</time></trkpt><trkpt lat="42.78178129212098" lon="10.167285424364088"><ele>473.0</ele><time>2026-05-01T14:49:39.999Z</time></trkpt><trkpt lat="42.781714141698274" lon="10.167275482737205"><ele>473.0</ele><time>2026-05-01T14:49:53.999Z</time></trkpt><trkpt lat="42.78164068104365" lon="10.16729493014939"><ele>473.0</ele><time>2026-05-01T14:50:07Z</time></trkpt><trkpt lat="42.78157692720347" lon="10.16730072412363"><ele>473.0</ele><time>2026-05-01T14:50:16Z</time></trkpt><trkpt lat="42.78156425831516" lon="10.167398970448573"><ele>473.0</ele><time>2026-05-01T14:50:25Z</time></trkpt><trkpt lat="42.78156500716626" lon="10.16749351354693"><ele>480.42857142857144</ele><time>2026-05-01T14:50:31Z</time></trkpt><trkpt lat="42.78156154395984" lon="10.167587117876025"><ele>487.85714285714283</ele><time>2026-05-01T14:50:38Z</time></trkpt><trkpt lat="42.7815643567805" lon="10.167678668930899"><ele>495.2857142857143</ele><time>2026-05-01T14:50:45Z</time></trkpt><trkpt lat="42.78156882456317" lon="10.167767524066726"><ele>502.7142857142857</ele><time>2026-05-01T14:50:51Z</time></trkpt><trkpt lat="42.781572026109316" lon="10.167854521044294"><ele>510.1428571428571</ele><time>2026-05-01T14:50:57.999Z</time></trkpt><trkpt lat="42.78157700500454" lon="10.16794498988405"><ele>517.5714285714286</ele><time>2026-05-01T14:51:05.999Z</time></trkpt><trkpt lat="42.78158502762235" lon="10.168031481426604"><ele>525.0</ele><time>2026-05-01T14:51:11.999Z</time></trkpt><trkpt lat="42.78157530270316" lon="10.168127836256195"><ele>526.2857142857143</ele><time>2026-05-01T14:51:19.999Z</time></trkpt><trkpt lat="42.78154030390907" lon="10.168204544803034"><ele>527.5714285714286</ele><time>2026-05-01T14:51:26.999Z</time></trkpt><trkpt lat="42.781526167113256" lon="10.168292696148752"><ele>528.8571428571429</ele><time>2026-05-01T14:51:32.999Z</time></trkpt><trkpt lat="42.7815088187097" lon="10.168388917654527"><ele>530.1428571428571</ele><time>2026-05-01T14:51:38.999Z</time></trkpt><trkpt lat="42.781511769043654" lon="10.168487914575758"><ele>531.4285714285714</ele><time>2026-05-01T14:51:56.999Z</time></trkpt><trkpt lat="42.78145490914649" lon="10.168547413270993"><ele>532.7142857142858</ele><time>2026-05-01T14:52:05.999Z</time></trkpt><trkpt lat="42.78141919786823" lon="10.16862055985823"><ele>534.0</ele><time>2026-05-01T14:52:15Z</time></trkpt><trkpt lat="42.78138542221146" lon="10.168697469444306"><ele>534.0000000000001</ele><time>2026-05-01T14:52:22Z</time></trkpt><trkpt lat="42.78134882015696" lon="10.168776989198173"><ele>534.0</ele><time>2026-05-01T14:52:27Z</time></trkpt><trkpt lat="42.78129960193225" lon="10.16884479117716"><ele>534.0</ele><time>2026-05-01T14:52:36Z</time></trkpt><trkpt lat="42.781293634547794" lon="10.16893214606128"><ele>534.0</ele><time>2026-05-01T14:53:01Z</time></trkpt><trkpt lat="42.78124744287987" lon="10.16901385648693"><ele>534.0</ele><time>2026-05-01T14:53:16.999Z</time></trkpt><trkpt lat="42.78119202865225" lon="10.169057035794822"><ele>534.0000000000001</ele><time>2026-05-01T14:53:20.999Z</time></trkpt><trkpt lat="42.78113774236956" lon="10.16910694397326"><ele>534.0</ele><time>2026-05-01T14:53:24.999Z</time></trkpt><trkpt lat="42.78109736181663" lon="10.169182541569299"><ele>533.5714285714287</ele><time>2026-05-01T14:53:31.999Z</time></trkpt><trkpt lat="42.781082228570824" lon="10.169267976751673"><ele>533.1428571428571</ele><time>2026-05-01T14:53:38.999Z</time></trkpt><trkpt lat="42.78105376598972" lon="10.169355828192776"><ele>532.7142857142858</ele><time>2026-05-01T14:53:45.999Z</time></trkpt><trkpt lat="42.78101630274327" lon="10.169442855661542"><ele>532.2857142857143</ele><time>2026-05-01T14:53:51.999Z</time></trkpt><trkpt lat="42.780988488260725" lon="10.169522225306228"><ele>531.8571428571429</ele><time>2026-05-01T14:53:56.999Z</time></trkpt><trkpt lat="42.78095179070975" lon="10.169607336269994"><ele>531.4285714285714</ele><time>2026-05-01T14:54:04.999Z</time></trkpt><trkpt lat="42.780903045073664" lon="10.169684203768863"><ele>531.0</ele><time>2026-05-01T14:54:12.999Z</time></trkpt><trkpt lat="42.7808446115067" lon="10.169731934865295"><ele>532.7142857142858</ele><time>2026-05-01T14:54:24Z</time></trkpt><trkpt lat="42.780785041938664" lon="10.169772017275983"><ele>534.4285714285714</ele><time>2026-05-01T14:54:33Z</time></trkpt><trkpt lat="42.780743689618596" lon="10.169854679801226"><ele>536.1428571428571</ele><time>2026-05-01T14:54:40Z</time></trkpt><trkpt lat="42.780705369323954" lon="10.169933754427152"><ele>537.8571428571429</ele><time>2026-05-01T14:54:46Z</time></trkpt><trkpt lat="42.780690915067375" lon="10.170030191828111"><ele>539.5714285714286</ele><time>2026-05-01T14:54:53Z</time></trkpt><trkpt lat="42.78066223956901" lon="10.170108707544012"><ele>541.2857142857143</ele><time>2026-05-01T14:55:00Z</time></trkpt><trkpt lat="42.780632597319915" lon="10.1701852382578"><ele>543.0</ele><time>2026-05-01T14:55:05.999Z</time></trkpt><trkpt lat="42.78058346824141" lon="10.17025818415733"><ele>543.0</ele><time>2026-05-01T14:55:14.999Z</time></trkpt><trkpt lat="42.780550036968336" lon="10.170349089112301"><ele>543.0</ele><time>2026-05-01T14:55:21.999Z</time></trkpt><trkpt lat="42.780496924628714" lon="10.170407878615055"><ele>543.0</ele><time>2026-05-01T14:55:27.999Z</time></trkpt><trkpt lat="42.78045360324269" lon="10.17047421443805"><ele>543.0</ele><time>2026-05-01T14:55:34.999Z</time></trkpt><trkpt lat="42.780411300269776" lon="10.170545787484066"><ele>543.0</ele><time>2026-05-01T14:55:39.999Z</time></trkpt><trkpt lat="42.78034482830622" lon="10.170590362832431"><ele>543.0</ele><time>2026-05-01T14:55:45.999Z</time></trkpt><trkpt lat="42.780297845940275" lon="10.170653082925291"><ele>543.0</ele><time>2026-05-01T14:55:51.999Z</time></trkpt><trkpt lat="42.78022462081433" lon="10.170696431932129"><ele>546.8571428571429</ele><time>2026-05-01T14:55:57.999Z</time></trkpt><trkpt lat="42.780168345084434" lon="10.17073857826886"><ele>550.7142857142857</ele><time>2026-05-01T14:56:02.999Z</time></trkpt><trkpt lat="42.78010635802875" lon="10.170775266072615"><ele>554.5714285714286</ele><time>2026-05-01T14:56:08.999Z</time></trkpt><trkpt lat="42.78005947912618" lon="10.17083589391645"><ele>558.4285714285714</ele><time>2026-05-01T14:56:14.999Z</time></trkpt><trkpt lat="42.78005115069182" lon="10.17092451787913"><ele>562.2857142857143</ele><time>2026-05-01T14:56:23Z</time></trkpt><trkpt lat="42.780056923679595" lon="10.171014622753104"><ele>566.1428571428571</ele><time>2026-05-01T14:56:32Z</time></trkpt><trkpt lat="42.78004979548609" lon="10.171105793298693"><ele>570.0</ele><time>2026-05-01T14:56:39Z</time></trkpt><trkpt lat="42.780042873465526" lon="10.171201488657388"><ele>570.0</ele><time>2026-05-01T14:56:46Z</time></trkpt><trkpt lat="42.780041097624235" lon="10.171297390944275"><ele>570.0</ele><time>2026-05-01T14:56:53Z</time></trkpt><trkpt lat="42.780039585809355" lon="10.17138797017409"><ele>570.0</ele><time>2026-05-01T14:56:59Z</time></trkpt><trkpt lat="42.78003750273839" lon="10.171479734466018"><ele>570.0</ele><time>2026-05-01T14:57:05Z</time></trkpt><trkpt lat="42.780030352978876" lon="10.171567919036532"><ele>570.0</ele><time>2026-05-01T14:57:11Z</time></trkpt><trkpt lat="42.780030862015956" lon="10.171660760786459"><ele>570.0</ele><time>2026-05-01T14:57:17.999Z</time></trkpt><trkpt lat="42.78000571610871" lon="10.171749840983244"><ele>570.0</ele><time>2026-05-01T14:57:25.999Z</time></trkpt><trkpt lat="42.779994799139054" lon="10.171843446124091"><ele>569.4285714285714</ele><time>2026-05-01T14:57:33.999Z</time></trkpt><trkpt lat="42.77996350928352" lon="10.171921415366377"><ele>568.8571428571429</ele><time>2026-05-01T14:57:39.999Z</time></trkpt><trkpt lat="42.77991728217469" lon="10.172003809431677"><ele>568.2857142857143</ele><time>2026-05-01T14:57:48.999Z</time></trkpt><trkpt lat="42.77988834910575" lon="10.17208586425144"><ele>567.7142857142858</ele><time>2026-05-01T14:57:54.999Z</time></trkpt><trkpt lat="42.77983416549033" lon="10.17214908327061"><ele>567.1428571428572</ele><time>2026-05-01T14:58:00.999Z</time></trkpt><trkpt lat="42.77980515978543" lon="10.172237824772969"><ele>566.5714285714286</ele><time>2026-05-01T14:58:07.999Z</time></trkpt><trkpt lat="42.77977955785286" lon="10.172322281116504"><ele>566.0</ele><time>2026-05-01T14:58:14.999Z</time></trkpt><trkpt lat="42.77972061896895" lon="10.172378198522054"><ele>563.8333333333333</ele><time>2026-05-01T14:58:23.998Z</time></trkpt><trkpt lat="42.77966172789788" lon="10.172419547791364"><ele>561.6666666666666</ele><time>2026-05-01T14:58:30Z</time></trkpt><trkpt lat="42.77960695817256" lon="10.172475918940812"><ele>559.5</ele><time>2026-05-01T14:58:36Z</time></trkpt><trkpt lat="42.779547277948076" lon="10.172527720160419"><ele>557.3333333333334</ele><time>2026-05-01T14:58:42Z</time></trkpt><trkpt lat="42.77947952044576" lon="10.172558846884554"><ele>555.1666666666667</ele><time>2026-05-01T14:58:55Z</time></trkpt><trkpt lat="42.779377015663606" lon="10.172527340179988"><ele>553.0</ele><time>2026-05-01T15:01:14Z</time></trkpt><trkpt lat="42.77930349521694" lon="10.1725128340912"><ele>557.5714285714286</ele><time>2026-05-01T15:01:24.999Z</time></trkpt><trkpt lat="42.779239275335236" lon="10.172518783444186"><ele>562.1428571428571</ele><time>2026-05-01T15:01:37.999Z</time></trkpt><trkpt lat="42.779176132485816" lon="10.172518586635718"><ele>566.7142857142858</ele><time>2026-05-01T15:01:44.999Z</time></trkpt><trkpt lat="42.77911529848645" lon="10.17254113219018"><ele>571.2857142857142</ele><time>2026-05-01T15:01:55.999Z</time></trkpt><trkpt lat="42.779048704428995" lon="10.172575316027"><ele>575.8571428571429</ele><time>2026-05-01T15:02:03.999Z</time></trkpt><trkpt lat="42.778983942050274" lon="10.172609734251436"><ele>580.4285714285714</ele><time>2026-05-01T15:02:09.999Z</time></trkpt><trkpt lat="42.778920893989486" lon="10.172626996182514"><ele>585.0</ele><time>2026-05-01T15:02:25.999Z</time></trkpt><trkpt lat="42.77886454704092" lon="10.172665766394248"><ele>585.0</ele><time>2026-05-01T15:02:43Z</time></trkpt><trkpt lat="42.77879276828535" lon="10.172644632517809"><ele>585.0</ele><time>2026-05-01T15:02:57Z</time></trkpt><trkpt lat="42.778724515430476" lon="10.172642451530049"><ele>585.0</ele><time>2026-05-01T15:03:10Z</time></trkpt><trkpt lat="42.77866153593264" lon="10.172649395736197"><ele>585.0</ele><time>2026-05-01T15:03:17Z</time></trkpt><trkpt lat="42.77861047476005" lon="10.172711662210634"><ele>585.0</ele><time>2026-05-01T15:03:23Z</time></trkpt><trkpt lat="42.77854295167193" lon="10.172741419707211"><ele>585.0</ele><time>2026-05-01T15:03:29.999Z</time></trkpt><trkpt lat="42.77848258456181" lon="10.172783947147408"><ele>585.0</ele><time>2026-05-01T15:03:40.999Z</time></trkpt><trkpt lat="42.778422933598655" lon="10.172821048867402"><ele>589.8571428571429</ele><time>2026-05-01T15:03:47.999Z</time></trkpt><trkpt lat="42.77835764759019" lon="10.172822788610818"><ele>594.7142857142857</ele><time>2026-05-01T15:03:55.999Z</time></trkpt><trkpt lat="42.77829203405486" lon="10.172838475332634"><ele>599.5714285714286</ele><time>2026-05-01T15:04:04.999Z</time></trkpt><trkpt lat="42.77823854541565" lon="10.172887948317332"><ele>604.4285714285714</ele><time>2026-05-01T15:04:10.999Z</time></trkpt><trkpt lat="42.778184227768804" lon="10.172936784567936"><ele>609.2857142857143</ele><time>2026-05-01T15:04:18.999Z</time></trkpt><trkpt lat="42.778106837878184" lon="10.172985179006371"><ele>614.1428571428571</ele><time>2026-05-01T15:04:44.998Z</time></trkpt><trkpt lat="42.778042502411026" lon="10.17299526012121"><ele>619.0</ele><time>2026-05-01T15:04:57Z</time></trkpt><trkpt lat="42.77797653831825" lon="10.173001664614306"><ele>619.0</ele><time>2026-05-01T15:05:38.999Z</time></trkpt><trkpt lat="42.77792540673251" lon="10.17292891951195"><ele>619.0</ele><time>2026-05-01T15:06:01.999Z</time></trkpt><trkpt lat="42.7778571594203" lon="10.172942686994611"><ele>619.0</ele><time>2026-05-01T15:06:14.999Z</time></trkpt><trkpt lat="42.77773987285343" lon="10.172911050902671"><ele>619.0</ele><time>2026-05-01T15:06:27.999Z</time></trkpt><trkpt lat="42.777685519199785" lon="10.172865944373454"><ele>619.0</ele><time>2026-05-01T15:06:41.998Z</time></trkpt><trkpt lat="42.77761493748182" lon="10.172866636488191"><ele>619.0</ele><time>2026-05-01T15:06:52Z</time></trkpt><trkpt lat="42.777551389631796" lon="10.172868923757038"><ele>625.3333333333334</ele><time>2026-05-01T15:07:10Z</time></trkpt><trkpt lat="42.777488723741335" lon="10.172900655224758"><ele>631.6666666666667</ele><time>2026-05-01T15:07:22Z</time></trkpt><trkpt lat="42.777419608325886" lon="10.172958834446339"><ele>638.0</ele><time>2026-05-01T15:07:40.999Z</time></trkpt><trkpt lat="42.77734655214686" lon="10.172935848169924"><ele>644.3333333333334</ele><time>2026-05-01T15:08:19.999Z</time></trkpt><trkpt lat="42.77724019731969" lon="10.17288596674917"><ele>650.6666666666666</ele><time>2026-05-01T15:13:01.998Z</time></trkpt><trkpt lat="42.77719684489044" lon="10.172949327786554"><ele>657.0</ele><time>2026-05-01T15:13:15Z</time></trkpt><trkpt lat="42.77712059953005" lon="10.172959395145094"><ele>657.0</ele><time>2026-05-01T15:13:33Z</time></trkpt><trkpt lat="42.77705830073091" lon="10.172993223262425"><ele>657.0</ele><time>2026-05-01T15:13:49.999Z</time></trkpt><trkpt lat="42.776994465741666" lon="10.173038167100247"><ele>657.0</ele><time>2026-05-01T15:14:26.999Z</time></trkpt><trkpt lat="42.77692994300833" lon="10.17304291453287"><ele>657.0</ele><time>2026-05-01T15:14:52.999Z</time></trkpt><trkpt lat="42.77686293207344" lon="10.173014854999856"><ele>657.0</ele><time>2026-05-01T15:15:07.998Z</time></trkpt><trkpt lat="42.77686598916035" lon="10.173104580517764"><ele>657.0</ele><time>2026-05-01T15:15:20Z</time></trkpt><trkpt lat="42.776782336438636" lon="10.173132545263822"><ele>657.0</ele><time>2026-05-01T15:16:59.999Z</time></trkpt><trkpt lat="42.77670992563928" lon="10.173162311914611"><ele>661.7142857142857</ele><time>2026-05-01T15:20:41.999Z</time></trkpt><trkpt lat="42.77667651779465" lon="10.173086873924378"><ele>666.4285714285714</ele><time>2026-05-01T15:20:50.999Z</time></trkpt><trkpt lat="42.77662574495202" lon="10.173030479660174"><ele>671.1428571428571</ele><time>2026-05-01T15:21:01.999Z</time></trkpt><trkpt lat="42.77655547243747" lon="10.173008551369142"><ele>675.8571428571429</ele><time>2026-05-01T15:21:18.999Z</time></trkpt><trkpt lat="42.77648352676357" lon="10.173016973546378"><ele>680.5714285714286</ele><time>2026-05-01T15:22:04Z</time></trkpt><trkpt lat="42.77642274985777" lon="10.173082331791177"><ele>685.2857142857143</ele><time>2026-05-01T15:22:55.999Z</time></trkpt><trkpt lat="42.776360122918845" lon="10.173105461971783"><ele>690.0</ele><time>2026-05-01T15:23:10.999Z</time></trkpt><trkpt lat="42.77629589886051" lon="10.173106972398932"><ele>690.0</ele><time>2026-05-01T15:23:29.999Z</time></trkpt><trkpt lat="42.7762887176591" lon="10.17319578439292"><ele>690.0</ele><time>2026-05-01T15:23:38Z</time></trkpt><trkpt lat="42.776209866593355" lon="10.17318792780392"><ele>690.0</ele><time>2026-05-01T15:24:06Z</time></trkpt><trkpt lat="42.77617627215374" lon="10.173269504704093"><ele>690.0</ele><time>2026-05-01T15:24:17.999Z</time></trkpt><trkpt lat="42.77617813664071" lon="10.173361798597455"><ele>690.0</ele><time>2026-05-01T15:24:25.999Z</time></trkpt><trkpt lat="42.77613248076184" lon="10.173431509852096"><ele>690.0</ele><time>2026-05-01T15:24:38.999Z</time></trkpt><trkpt lat="42.77609134243931" lon="10.173504627025647"><ele>690.0</ele><time>2026-05-01T15:24:50.999Z</time></trkpt><trkpt lat="42.77612606399692" lon="10.173581244630684"><ele>689.4285714285714</ele><time>2026-05-01T15:25:26.999Z</time></trkpt><trkpt lat="42.77611547062504" lon="10.17366729212676"><ele>688.8571428571429</ele><time>2026-05-01T15:25:35.998Z</time></trkpt><trkpt lat="42.776046618221095" lon="10.173659006394615"><ele>688.2857142857142</ele><time>2026-05-01T15:25:49Z</time></trkpt><trkpt lat="42.77604265637762" lon="10.173753840806098"><ele>687.7142857142858</ele><time>2026-05-01T15:25:55Z</time></trkpt><trkpt lat="42.77602146310602" lon="10.173843356348325"><ele>687.1428571428571</ele><time>2026-05-01T15:26:05Z</time></trkpt><trkpt lat="42.77599901418958" lon="10.173927098648182"><ele>686.5714285714286</ele><time>2026-05-01T15:26:14Z</time></trkpt><trkpt lat="42.77600970770416" lon="10.174019754290535"><ele>686.0</ele><time>2026-05-01T15:26:28.999Z</time></trkpt><trkpt lat="42.77601968254824" lon="10.174137895657058"><ele>687.5714285714286</ele><time>2026-05-01T15:26:41.999Z</time></trkpt><trkpt lat="42.776041256477086" lon="10.174220362243197"><ele>689.1428571428571</ele><time>2026-05-01T15:26:54.999Z</time></trkpt><trkpt lat="42.77607726642895" lon="10.17429116309408"><ele>690.7142857142858</ele><time>2026-05-01T15:27:03.999Z</time></trkpt><trkpt lat="42.776044127031305" lon="10.17421774933073"><ele>692.2857142857142</ele><time>2026-05-01T15:27:59.999Z</time></trkpt><trkpt lat="42.775983843853126" lon="10.174179659038353"><ele>693.8571428571429</ele><time>2026-05-01T15:28:06.999Z</time></trkpt><trkpt lat="42.77593947513439" lon="10.17410053761351"><ele>695.4285714285714</ele><time>2026-05-01T15:28:16.999Z</time></trkpt><trkpt lat="42.77590619471421" lon="10.174022830385406"><ele>697.0</ele><time>2026-05-01T15:28:23.999Z</time></trkpt><trkpt lat="42.77587148693353" lon="10.17394141622544"><ele>702.5714285714286</ele><time>2026-05-01T15:28:31.999Z</time></trkpt><trkpt lat="42.77582058255046" lon="10.173867652300933"><ele>708.1428571428571</ele><time>2026-05-01T15:28:38.999Z</time></trkpt><trkpt lat="42.775765929499386" lon="10.173819194608399"><ele>713.7142857142858</ele><time>2026-05-01T15:28:45.999Z</time></trkpt><trkpt lat="42.77570310509556" lon="10.17382777412212"><ele>719.2857142857142</ele><time>2026-05-01T15:28:59.999Z</time></trkpt><trkpt lat="42.77567273955801" lon="10.17374971087274"><ele>724.8571428571428</ele><time>2026-05-01T15:29:08.999Z</time></trkpt><trkpt lat="42.7756153372006" lon="10.173702951714272"><ele>730.4285714285714</ele><time>2026-05-01T15:29:16.999Z</time></trkpt><trkpt lat="42.77556165783806" lon="10.173634857292205"><ele>736.0</ele><time>2026-05-01T15:29:22.999Z</time></trkpt><trkpt lat="42.77549930659949" lon="10.173597832423365"><ele>736.0</ele><time>2026-05-01T15:29:28.999Z</time></trkpt><trkpt lat="42.775509129520714" lon="10.173503115605106"><ele>736.0</ele><time>2026-05-01T15:29:48.998Z</time></trkpt><trkpt lat="42.775509836625226" lon="10.173403174991398"><ele>736.0</ele><time>2026-05-01T15:30:01.999Z</time></trkpt><trkpt lat="42.77550222142939" lon="10.173315994550727"><ele>736.0</ele><time>2026-05-01T15:30:11.999Z</time></trkpt><trkpt lat="42.77546907237715" lon="10.1732375422301"><ele>736.0</ele><time>2026-05-01T15:30:26.999Z</time></trkpt><trkpt lat="42.775411833593786" lon="10.173185430709685"><ele>736.0</ele><time>2026-05-01T15:30:31.999Z</time></trkpt><trkpt lat="42.77539188865079" lon="10.173087391403861"><ele>736.0</ele><time>2026-05-01T15:30:37.999Z</time></trkpt><trkpt lat="42.775373791776964" lon="10.172985323497167"><ele>735.7142857142858</ele><time>2026-05-01T15:30:44.999Z</time></trkpt><trkpt lat="42.775372332498314" lon="10.172887121993945"><ele>735.4285714285713</ele><time>2026-05-01T15:30:50.999Z</time></trkpt><trkpt lat="42.77537659834767" lon="10.172800276000787"><ele>735.1428571428571</ele><time>2026-05-01T15:30:56.999Z</time></trkpt><trkpt lat="42.775313552806956" lon="10.172775053348987"><ele>734.8571428571429</ele><time>2026-05-01T15:31:02.999Z</time></trkpt><trkpt lat="42.775270402626795" lon="10.172709850852984"><ele>734.5714285714287</ele><time>2026-05-01T15:31:40.999Z</time></trkpt><trkpt lat="42.775222826331124" lon="10.172630365920682"><ele>734.2857142857142</ele><time>2026-05-01T15:31:50.998Z</time></trkpt><trkpt lat="42.77516090052342" lon="10.172591825310446"><ele>734.0</ele><time>2026-05-01T15:32:01.999Z</time></trkpt><trkpt lat="42.77509658154257" lon="10.172578164039994"><ele>740.8571428571428</ele><time>2026-05-01T15:32:09Z</time></trkpt><trkpt lat="42.7750603917951" lon="10.172505140179796"><ele>747.7142857142858</ele><time>2026-05-01T15:32:17Z</time></trkpt><trkpt lat="42.77499862703321" lon="10.172477858375078"><ele>754.5714285714286</ele><time>2026-05-01T15:32:26Z</time></trkpt><trkpt lat="42.774930933773994" lon="10.172505522503288"><ele>761.4285714285713</ele><time>2026-05-01T15:32:31.999Z</time></trkpt><trkpt lat="42.77486646361079" lon="10.172469452156248"><ele>768.2857142857142</ele><time>2026-05-01T15:32:46.999Z</time></trkpt><trkpt lat="42.77484982769807" lon="10.172375305733269"><ele>775.1428571428571</ele><time>2026-05-01T15:33:15.999Z</time></trkpt><trkpt lat="42.77479298948118" lon="10.172314044102407"><ele>782.0</ele><time>2026-05-01T15:33:25.999Z</time></trkpt><trkpt lat="42.77472141152038" lon="10.172300125172594"><ele>784.4285714285713</ele><time>2026-05-01T15:33:33.999Z</time></trkpt><trkpt lat="42.77465337669642" lon="10.172276812185475"><ele>786.8571428571429</ele><time>2026-05-01T15:33:39.999Z</time></trkpt><trkpt lat="42.77460223227929" lon="10.172209571793713"><ele>789.2857142857142</ele><time>2026-05-01T15:33:50.999Z</time></trkpt><trkpt lat="42.77459278225118" lon="10.1721234685051"><ele>791.7142857142857</ele><time>2026-05-01T15:34:07Z</time></trkpt><trkpt lat="42.77452477651762" lon="10.172127091917305"><ele>794.1428571428571</ele><time>2026-05-01T15:34:14Z</time></trkpt><trkpt lat="42.774485577526505" lon="10.172055967839018"><ele>796.5714285714286</ele><time>2026-05-01T15:34:25Z</time></trkpt><trkpt lat="42.774443130958275" lon="10.171992501921968"><ele>799.0</ele><time>2026-05-01T15:34:40Z</time></trkpt><trkpt lat="42.7743673842437" lon="10.172020308690826"><ele>802.8571428571429</ele><time>2026-05-01T15:34:49Z</time></trkpt><trkpt lat="42.774329429991695" lon="10.171927490355685"><ele>806.7142857142857</ele><time>2026-05-01T15:35:00Z</time></trkpt><trkpt lat="42.77426786524498" lon="10.171897759562803"><ele>810.5714285714286</ele><time>2026-05-01T15:35:04.999Z</time></trkpt><trkpt lat="42.77421976489423" lon="10.17183395366099"><ele>814.4285714285714</ele><time>2026-05-01T15:35:10.999Z</time></trkpt><trkpt lat="42.774161821408526" lon="10.171773478296997"><ele>818.2857142857142</ele><time>2026-05-01T15:35:19.999Z</time></trkpt><trkpt lat="42.77412083203908" lon="10.171702190980245"><ele>822.1428571428571</ele><time>2026-05-01T15:35:28.999Z</time></trkpt><trkpt lat="42.77407171883239" lon="10.17163334765116"><ele>826.0</ele><time>2026-05-01T15:35:52.999Z</time></trkpt><trkpt lat="42.7740066121324" lon="10.17161081032339"><ele>826.0</ele><time>2026-05-01T15:35:59.999Z</time></trkpt><trkpt lat="42.77393939632386" lon="10.171600974235982"><ele>826.0</ele><time>2026-05-01T15:36:05.999Z</time></trkpt><trkpt lat="42.77386527857468" lon="10.171566375590222"><ele>826.0</ele><time>2026-05-01T15:36:13Z</time></trkpt><trkpt lat="42.7737952600769" lon="10.171541015448952"><ele>826.0</ele><time>2026-05-01T15:36:20Z</time></trkpt><trkpt lat="42.77373398198287" lon="10.171486068327226"><ele>826.0</ele><time>2026-05-01T15:36:28Z</time></trkpt><trkpt lat="42.77367402989854" lon="10.171433176071496"><ele>826.0</ele><time>2026-05-01T15:36:37Z</time></trkpt><trkpt lat="42.77364330450868" lon="10.171350265603309"><ele>826.0</ele><time>2026-05-01T15:36:47Z</time></trkpt><trkpt lat="42.77359929525306" lon="10.171287464442738"><ele>830.7142857142857</ele><time>2026-05-01T15:36:56Z</time></trkpt><trkpt lat="42.77354351866762" lon="10.171232396097382"><ele>835.4285714285714</ele><time>2026-05-01T15:37:05Z</time></trkpt><trkpt lat="42.77348945497718" lon="10.171182459190746"><ele>840.1428571428571</ele><time>2026-05-01T15:37:17.999Z</time></trkpt><trkpt lat="42.773435922498265" lon="10.171133206137712"><ele>844.8571428571429</ele><time>2026-05-01T15:37:26.999Z</time></trkpt><trkpt lat="42.77337685489081" lon="10.171102526982654"><ele>849.5714285714286</ele><time>2026-05-01T15:37:36.999Z</time></trkpt><trkpt lat="42.77331087336972" lon="10.171053949967817"><ele>854.2857142857142</ele><time>2026-05-01T15:37:46.999Z</time></trkpt><trkpt lat="42.77326148920034" lon="10.170988075716796"><ele>859.0</ele><time>2026-05-01T15:37:59.999Z</time></trkpt><trkpt lat="42.77319974907438" lon="10.170963892824565"><ele>859.9999999999999</ele><time>2026-05-01T15:38:07.999Z</time></trkpt><trkpt lat="42.77315684952142" lon="10.170899128585148"><ele>861.0</ele><time>2026-05-01T15:38:19Z</time></trkpt><trkpt lat="42.77309850393518" lon="10.1708585001943"><ele>862.0</ele><time>2026-05-01T15:39:15Z</time></trkpt><trkpt lat="42.77304086082078" lon="10.170805489950778"><ele>863.0</ele><time>2026-05-01T15:39:30.999Z</time></trkpt><trkpt lat="42.77298192103746" lon="10.170773350184277"><ele>864.0</ele><time>2026-05-01T15:40:17.999Z</time></trkpt><trkpt lat="42.77291413294532" lon="10.170755038743625"><ele>864.9999999999999</ele><time>2026-05-01T15:40:27Z</time></trkpt><trkpt lat="42.77284673527652" lon="10.170721523918225"><ele>866.0</ele><time>2026-05-01T15:40:39Z</time></trkpt><trkpt lat="42.77278634952226" lon="10.170691038767314"><ele>872.0</ele><time>2026-05-01T15:40:50Z</time></trkpt><trkpt lat="42.77272948488189" lon="10.170618113017051"><ele>878.0</ele><time>2026-05-01T15:41:08Z</time></trkpt><trkpt lat="42.772801208363774" lon="10.170589256427096"><ele>884.0</ele><time>2026-05-01T15:41:21.999Z</time></trkpt><trkpt lat="42.77286729683178" lon="10.170558066356982"><ele>890.0</ele><time>2026-05-01T15:41:34.999Z</time></trkpt><trkpt lat="42.77290831455359" lon="10.170489581975534"><ele>896.0000000000001</ele><time>2026-05-01T15:41:47.999Z</time></trkpt><trkpt lat="42.77284843326382" lon="10.170459142442335"><ele>902.0</ele><time>2026-05-01T15:41:59.999Z</time></trkpt><trkpt lat="42.77278324668091" lon="10.17042433059362"><ele>908.0</ele><time>2026-05-01T15:42:11.999Z</time></trkpt><trkpt lat="42.772702765616536" lon="10.170405424533527"><ele>908.0</ele><time>2026-05-01T15:42:19.999Z</time></trkpt><trkpt lat="42.77266692783536" lon="10.170323892801008"><ele>908.0000000000001</ele><time>2026-05-01T15:42:38Z</time></trkpt><trkpt lat="42.77269510811646" lon="10.170236678508726"><ele>908.0</ele><time>2026-05-01T15:42:57Z</time></trkpt><trkpt lat="42.77275940416317" lon="10.170208375683325"><ele>908.0</ele><time>2026-05-01T15:43:07.999Z</time></trkpt><trkpt lat="42.772819191557154" lon="10.170153002142346"><ele>908.0000000000001</ele><time>2026-05-01T15:43:21.999Z</time></trkpt><trkpt lat="42.77288146649453" lon="10.170094679172005"><ele>908.0</ele><time>2026-05-01T15:43:31.999Z</time></trkpt><trkpt lat="42.77282279582595" lon="10.1700313765335"><ele>908.0</ele><time>2026-05-01T15:43:48.999Z</time></trkpt><trkpt lat="42.772757105712785" lon="10.170020938420251"><ele>908.0</ele><time>2026-05-01T15:43:59.999Z</time></trkpt><trkpt lat="42.7726972607137" lon="10.16998038934785"><ele>908.0000000000001</ele><time>2026-05-01T15:44:07.999Z</time></trkpt><trkpt lat="42.77263765705747" lon="10.16994265204766"><ele>908.0</ele><time>2026-05-01T15:44:21.999Z</time></trkpt><trkpt lat="42.772572032988904" lon="10.169924285747836"><ele>908.0</ele><time>2026-05-01T15:44:32.998Z</time></trkpt><trkpt lat="42.77250643140827" lon="10.169931441403058"><ele>908.0000000000001</ele><time>2026-05-01T15:44:43Z</time></trkpt><trkpt lat="42.77243966395416" lon="10.16993970154663"><ele>908.0</ele><time>2026-05-01T15:44:53Z</time></trkpt><trkpt lat="42.77246453790336" lon="10.16983976554776"><ele>908.0</ele><time>2026-05-01T15:45:23.999Z</time></trkpt><trkpt lat="42.77253017467396" lon="10.169820000031201"><ele>907.4285714285714</ele><time>2026-05-01T15:45:37.999Z</time></trkpt><trkpt lat="42.77257100746852" lon="10.169754206351646"><ele>906.8571428571429</ele><time>2026-05-01T15:45:44.999Z</time></trkpt><trkpt lat="42.77262865046875" lon="10.169697428933839"><ele>906.2857142857143</ele><time>2026-05-01T15:45:56.999Z</time></trkpt><trkpt lat="42.77269263728961" lon="10.169683294769346"><ele>905.7142857142858</ele><time>2026-05-01T15:46:07.999Z</time></trkpt><trkpt lat="42.77275276981277" lon="10.169644289356398"><ele>905.1428571428571</ele><time>2026-05-01T15:46:15.999Z</time></trkpt><trkpt lat="42.772801232014594" lon="10.169566861669045"><ele>904.5714285714287</ele><time>2026-05-01T15:46:24.999Z</time></trkpt><trkpt lat="42.77280505749137" lon="10.169481162093227"><ele>904.0</ele><time>2026-05-01T15:46:31.998Z</time></trkpt><trkpt lat="42.77275267826865" lon="10.169426424896471"><ele>904.0</ele><time>2026-05-01T15:46:47Z</time></trkpt><trkpt lat="42.772697119222904" lon="10.169384439023833"><ele>904.0</ele><time>2026-05-01T15:46:59Z</time></trkpt><trkpt lat="42.77265469224033" lon="10.169305754122794"><ele>904.0</ele><time>2026-05-01T15:47:09.999Z</time></trkpt><trkpt lat="42.772591121923995" lon="10.16929579858525"><ele>904.0</ele><time>2026-05-01T15:47:20.999Z</time></trkpt><trkpt lat="42.77253437150945" lon="10.169247549596642"><ele>904.0</ele><time>2026-05-01T15:47:39.999Z</time></trkpt><trkpt lat="42.77247229968661" lon="10.169215474397856"><ele>904.0</ele><time>2026-05-01T15:47:51.999Z</time></trkpt><trkpt lat="42.77240811091822" lon="10.16920544794813"><ele>904.0</ele><time>2026-05-01T15:48:00.999Z</time></trkpt><trkpt lat="42.772351591153715" lon="10.16915465663143"><ele>907.4285714285714</ele><time>2026-05-01T15:48:15.999Z</time></trkpt><trkpt lat="42.77231632807631" lon="10.169232068600914"><ele>910.8571428571429</ele><time>2026-05-01T15:48:27.999Z</time></trkpt><trkpt lat="42.77224367135539" lon="10.169247791865834"><ele>914.2857142857143</ele><time>2026-05-01T15:48:43.998Z</time></trkpt><trkpt lat="42.77221410978238" lon="10.169172031378832"><ele>917.7142857142858</ele><time>2026-05-01T15:49:00.999Z</time></trkpt><trkpt lat="42.77214088424655" lon="10.16916306737628"><ele>921.1428571428571</ele><time>2026-05-01T15:49:18.999Z</time></trkpt><trkpt lat="42.772118892872264" lon="10.169080651985443"><ele>924.5714285714287</ele><time>2026-05-01T15:49:26.999Z</time></trkpt><trkpt lat="42.772090572505036" lon="10.16898523943439"><ele>928.0000000000001</ele><time>2026-05-01T15:49:35.999Z</time></trkpt><trkpt lat="42.772064663082965" lon="10.168897820252727"><ele>928.0000000000001</ele><time>2026-05-01T15:49:44.999Z</time></trkpt><trkpt lat="42.772029219001425" lon="10.168819542146831"><ele>928.0</ele><time>2026-05-01T15:49:52.999Z</time></trkpt><trkpt lat="42.771964325093585" lon="10.168791547066682"><ele>928.0000000000001</ele><time>2026-05-01T15:50:07.999Z</time></trkpt><trkpt lat="42.77192378244914" lon="10.168857398068544"><ele>928.0000000000001</ele><time>2026-05-01T15:50:14.999Z</time></trkpt><trkpt lat="42.77188210577171" lon="10.168790921023305"><ele>928.0</ele><time>2026-05-01T15:50:39.998Z</time></trkpt><trkpt lat="42.771864874945365" lon="10.168707245070646"><ele>928.0000000000001</ele><time>2026-05-01T15:51:44.999Z</time></trkpt><trkpt lat="42.77190415661802" lon="10.16862532738925"><ele>928.0000000000001</ele><time>2026-05-01T15:51:51.999Z</time></trkpt><trkpt lat="42.771936134457846" lon="10.168543108251503"><ele>928.0000000000001</ele><time>2026-05-01T15:51:56.999Z</time></trkpt><trkpt lat="42.771934829142225" lon="10.168456069431672"><ele>928.0</ele><time>2026-05-01T15:53:28Z</time></trkpt><trkpt lat="42.771882686883444" lon="10.168375807622356"><ele>928.0000000000001</ele><time>2026-05-01T15:53:48.999Z</time></trkpt><trkpt lat="42.77184393426715" lon="10.168307281521729"><ele>928.0000000000001</ele><time>2026-05-01T15:53:58.999Z</time></trkpt><trkpt lat="42.771782824345514" lon="10.168346589177583"><ele>928.0</ele><time>2026-05-01T15:54:12.999Z</time></trkpt><trkpt lat="42.77170432711574" lon="10.16836330800826"><ele>928.0000000000001</ele><time>2026-05-01T15:54:37.999Z</time></trkpt><trkpt lat="42.77164322470045" lon="10.168326215914881"><ele>928.0000000000001</ele><time>2026-05-01T15:54:51.999Z</time></trkpt><trkpt lat="42.77157929109323" lon="10.168308238102135"><ele>936.1428571428573</ele><time>2026-05-01T15:54:56.999Z</time></trkpt><trkpt lat="42.771513227271186" lon="10.168301822762123"><ele>944.2857142857143</ele><time>2026-05-01T15:55:04Z</time></trkpt><trkpt lat="42.771530059595314" lon="10.16820652203674"><ele>952.4285714285716</ele><time>2026-05-01T15:55:13Z</time></trkpt><trkpt lat="42.77154292604324" lon="10.168111393273309"><ele>960.5714285714287</ele><time>2026-05-01T15:55:21Z</time></trkpt><trkpt lat="42.77148998436108" lon="10.16805988119822"><ele>968.7142857142858</ele><time>2026-05-01T15:55:27Z</time></trkpt><trkpt lat="42.771446461138815" lon="10.167977780790917"><ele>976.8571428571429</ele><time>2026-05-01T15:55:33Z</time></trkpt><trkpt lat="42.771408813080036" lon="10.16790360014535"><ele>985.0</ele><time>2026-05-01T15:55:40Z</time></trkpt><trkpt lat="42.7713879992806" lon="10.167814294619877"><ele>985.5714285714287</ele><time>2026-05-01T15:55:51Z</time></trkpt><trkpt lat="42.77133958782655" lon="10.167750117123406"><ele>986.1428571428572</ele><time>2026-05-01T15:55:57.999Z</time></trkpt><trkpt lat="42.77131294558072" lon="10.167671715117775"><ele>986.7142857142858</ele><time>2026-05-01T15:56:06.999Z</time></trkpt><trkpt lat="42.77128846040789" lon="10.16758960025864"><ele>987.2857142857142</ele><time>2026-05-01T15:56:14.999Z</time></trkpt><trkpt lat="42.771265387352685" lon="10.167505724822245"><ele>987.8571428571428</ele><time>2026-05-01T15:56:20.999Z</time></trkpt><trkpt lat="42.77119824014083" lon="10.167507669346344"><ele>988.4285714285713</ele><time>2026-05-01T15:57:51.997Z</time></trkpt><trkpt lat="42.771260888760395" lon="10.167529333263571"><ele>989.0</ele><time>2026-05-01T16:01:37Z</time></trkpt><trkpt lat="42.771284404318145" lon="10.16761848989566"><ele>989.0</ele><time>2026-05-01T16:01:45Z</time></trkpt><trkpt lat="42.77131254393958" lon="10.167712116068117"><ele>988.9999999999999</ele><time>2026-05-01T16:01:53Z</time></trkpt><trkpt lat="42.77134578853543" lon="10.167801839763538"><ele>989.0</ele><time>2026-05-01T16:02:01.999Z</time></trkpt><trkpt lat="42.771384677958025" lon="10.167882932905197"><ele>989.0</ele><time>2026-05-01T16:02:10.999Z</time></trkpt><trkpt lat="42.77143203586254" lon="10.167952168343534"><ele>988.9999999999999</ele><time>2026-05-01T16:02:23.999Z</time></trkpt><trkpt lat="42.77146196451815" lon="10.168050138123656"><ele>989.0</ele><time>2026-05-01T16:02:28.999Z</time></trkpt><trkpt lat="42.77150471552844" lon="10.168120536768567"><ele>989.0</ele><time>2026-05-01T16:02:33.999Z</time></trkpt><trkpt lat="42.77153638096872" lon="10.168269951516518"><ele>988.4285714285713</ele><time>2026-05-01T16:03:15.999Z</time></trkpt><trkpt lat="42.771592091024786" lon="10.168322058225124"><ele>987.8571428571428</ele><time>2026-05-01T16:03:37Z</time></trkpt><trkpt lat="42.771649807797985" lon="10.168357173718732"><ele>987.2857142857142</ele><time>2026-05-01T16:03:44Z</time></trkpt><trkpt lat="42.771643713461124" lon="10.168465166983966"><ele>986.7142857142858</ele><time>2026-05-01T16:04:01Z</time></trkpt><trkpt lat="42.77171369461164" lon="10.168453074956501"><ele>986.1428571428572</ele><time>2026-05-01T16:04:26.999Z</time></trkpt><trkpt lat="42.77179327919844" lon="10.168435127127214"><ele>985.5714285714287</ele><time>2026-05-01T16:04:30.999Z</time></trkpt><trkpt lat="42.77185658573307" lon="10.168443276005044"><ele>985.0</ele><time>2026-05-01T16:04:43.999Z</time></trkpt><trkpt lat="42.77192102269645" lon="10.168453757766002"><ele>985.0</ele><time>2026-05-01T16:04:53.999Z</time></trkpt><trkpt lat="42.77191607454655" lon="10.168540923756762"><ele>985.0000000000001</ele><time>2026-05-01T16:05:01.999Z</time></trkpt><trkpt lat="42.77189120080724" lon="10.168640340500934"><ele>985.0</ele><time>2026-05-01T16:05:06.999Z</time></trkpt><trkpt lat="42.77185417491383" lon="10.168720761909299"><ele>985.0</ele><time>2026-05-01T16:05:11.999Z</time></trkpt><trkpt lat="42.7718154879816" lon="10.168800536761202"><ele>985.0000000000001</ele><time>2026-05-01T16:05:17.999Z</time></trkpt><trkpt lat="42.77186831799909" lon="10.168849445113503"><ele>985.0</ele><time>2026-05-01T16:05:24.999Z</time></trkpt><trkpt lat="42.77189491753104" lon="10.168928897055235"><ele>985.0</ele><time>2026-05-01T16:05:29.999Z</time></trkpt><trkpt lat="42.77194835788753" lon="10.168851721236159"><ele>978.1428571428572</ele><time>2026-05-01T16:05:37Z</time></trkpt><trkpt lat="42.77199222901561" lon="10.168789262073052"><ele>971.2857142857144</ele><time>2026-05-01T16:05:43Z</time></trkpt><trkpt lat="42.772019092953855" lon="10.168882953779804"><ele>964.4285714285714</ele><time>2026-05-01T16:05:54Z</time></trkpt><trkpt lat="42.7720596362871" lon="10.168958748202073"><ele>957.5714285714287</ele><time>2026-05-01T16:06:00Z</time></trkpt><trkpt lat="42.77208243248878" lon="10.169048276008326"><ele>950.7142857142858</ele><time>2026-05-01T16:06:04Z</time></trkpt><trkpt lat="42.772111910636774" lon="10.169125785556389"><ele>943.8571428571429</ele><time>2026-05-01T16:06:08Z</time></trkpt><trkpt lat="42.7721704518085" lon="10.169180546007945"><ele>937.0</ele><time>2026-05-01T16:06:16Z</time></trkpt><trkpt lat="42.772232662106894" lon="10.169204726675062"><ele>937.0</ele><time>2026-05-01T16:06:31.999Z</time></trkpt><trkpt lat="42.77229645213021" lon="10.169216501920651"><ele>937.0</ele><time>2026-05-01T16:06:40.999Z</time></trkpt><trkpt lat="42.772309679851915" lon="10.169306024205008"><ele>937.0</ele><time>2026-05-01T16:06:45.999Z</time></trkpt><trkpt lat="42.77233004877175" lon="10.16914909418681"><ele>937.0</ele><time>2026-05-01T16:06:58.999Z</time></trkpt><trkpt lat="42.772375082688484" lon="10.16921381271188"><ele>937.0</ele><time>2026-05-01T16:07:11.999Z</time></trkpt><trkpt lat="42.77243763549195" lon="10.169234393571537"><ele>937.0</ele><time>2026-05-01T16:07:19.999Z</time></trkpt><trkpt lat="42.77249850727325" lon="10.16926172140029"><ele>937.0</ele><time>2026-05-01T16:07:30.999Z</time></trkpt><trkpt lat="42.77254919265151" lon="10.16931645719722"><ele>937.0</ele><time>2026-05-01T16:07:37.998Z</time></trkpt><trkpt lat="42.7726128761644" lon="10.169310390392956"><ele>937.0</ele><time>2026-05-01T16:07:48Z</time></trkpt><trkpt lat="42.77266685488571" lon="10.169356135177106"><ele>937.0</ele><time>2026-05-01T16:07:59Z</time></trkpt><trkpt lat="42.772714221245195" lon="10.169417078059691"><ele>937.0</ele><time>2026-05-01T16:08:11Z</time></trkpt><trkpt lat="42.77277039034332" lon="10.169373835403224"><ele>937.0</ele><time>2026-05-01T16:08:19Z</time></trkpt><trkpt lat="42.77278611921078" lon="10.169463227380561"><ele>937.0</ele><time>2026-05-01T16:08:27.999Z</time></trkpt><trkpt lat="42.772780857714885" lon="10.169557166967069"><ele>937.0</ele><time>2026-05-01T16:08:35.999Z</time></trkpt><trkpt lat="42.7727514493403" lon="10.169633202753712"><ele>937.0</ele><time>2026-05-01T16:08:44.999Z</time></trkpt><trkpt lat="42.77269024969698" lon="10.169668600185071"><ele>937.0</ele><time>2026-05-01T16:08:51.999Z</time></trkpt><trkpt lat="42.772625759917084" lon="10.169673009974526"><ele>937.0</ele><time>2026-05-01T16:08:57.999Z</time></trkpt><trkpt lat="42.77257076870746" lon="10.169724464533171"><ele>937.0</ele><time>2026-05-01T16:09:07.999Z</time></trkpt><trkpt lat="42.77251897610636" lon="10.169774342054227"><ele>937.0</ele><time>2026-05-01T16:09:16.999Z</time></trkpt><trkpt lat="42.77246870005318" lon="10.169828371225256"><ele>937.0</ele><time>2026-05-01T16:09:24.999Z</time></trkpt><trkpt lat="42.77242074133204" lon="10.169884109755332"><ele>937.0</ele><time>2026-05-01T16:09:33.999Z</time></trkpt><trkpt lat="42.77246304537492" lon="10.169960926671507"><ele>933.7142857142857</ele><time>2026-05-01T16:09:51Z</time></trkpt><trkpt lat="42.77252695356431" lon="10.169946070004467"><ele>930.4285714285716</ele><time>2026-05-01T16:10:00Z</time></trkpt><trkpt lat="42.772598580149186" lon="10.16993992459378"><ele>927.1428571428572</ele><time>2026-05-01T16:10:05Z</time></trkpt><trkpt lat="42.772669953577356" lon="10.169963274513455"><ele>923.8571428571429</ele><time>2026-05-01T16:10:17Z</time></trkpt><trkpt lat="42.77272648207378" lon="10.170016234067026"><ele>920.5714285714287</ele><time>2026-05-01T16:10:27.999Z</time></trkpt><trkpt lat="42.77279161666809" lon="10.170028715775247"><ele>917.2857142857144</ele><time>2026-05-01T16:10:34.999Z</time></trkpt><trkpt lat="42.77285046635808" lon="10.1700660279893"><ele>914.0000000000001</ele><time>2026-05-01T16:10:47.999Z</time></trkpt><trkpt lat="42.772899468773744" lon="10.170127861111583"><ele>913.1428571428573</ele><time>2026-05-01T16:11:04.999Z</time></trkpt><trkpt lat="42.772955995355964" lon="10.170177560068648"><ele>912.2857142857143</ele><time>2026-05-01T16:11:32.999Z</time></trkpt><trkpt lat="42.77300626586631" lon="10.170244130417004"><ele>911.4285714285716</ele><time>2026-05-01T16:11:47.998Z</time></trkpt><trkpt lat="42.77303290046366" lon="10.170325672321749"><ele>910.5714285714287</ele><time>2026-05-01T16:12:05Z</time></trkpt><trkpt lat="42.77309201881557" lon="10.170394114895492"><ele>909.7142857142858</ele><time>2026-05-01T16:13:48.998Z</time></trkpt><trkpt lat="42.77302653323642" lon="10.170383892259181"><ele>908.8571428571429</ele><time>2026-05-01T16:14:09Z</time></trkpt><trkpt lat="42.772999209310626" lon="10.170489116186308"><ele>908.0</ele><time>2026-05-01T16:14:33.999Z</time></trkpt><trkpt lat="42.772976809901245" lon="10.170571821965238"><ele>908.0</ele><time>2026-05-01T16:14:54.999Z</time></trkpt><trkpt lat="42.772906909586716" lon="10.170659785597255"><ele>908.0000000000001</ele><time>2026-05-01T16:15:18.999Z</time></trkpt><trkpt lat="42.772907838983826" lon="10.17075515670035"><ele>908.0</ele><time>2026-05-01T16:15:57.998Z</time></trkpt><trkpt lat="42.772972125350314" lon="10.17078800500029"><ele>908.0</ele><time>2026-05-01T16:16:19Z</time></trkpt><trkpt lat="42.77303010149025" lon="10.170826700945382"><ele>908.0000000000001</ele><time>2026-05-01T16:16:32.999Z</time></trkpt><trkpt lat="42.7730921503982" lon="10.170861742173507"><ele>908.0</ele><time>2026-05-01T16:16:41.999Z</time></trkpt><trkpt lat="42.773145280533306" lon="10.170923803209652"><ele>908.0</ele><time>2026-05-01T16:16:50.999Z</time></trkpt><trkpt lat="42.77320702961467" lon="10.170965641790403"><ele>902.0</ele><time>2026-05-01T16:17:07.999Z</time></trkpt><trkpt lat="42.773270411773105" lon="10.171057729987508"><ele>896.0000000000001</ele><time>2026-05-01T16:17:32.999Z</time></trkpt><trkpt lat="42.77333239917001" lon="10.171090721241915"><ele>890.0</ele><time>2026-05-01T16:17:40.998Z</time></trkpt><trkpt lat="42.773391246239335" lon="10.171135729587263"><ele>884.0</ele><time>2026-05-01T16:17:49.998Z</time></trkpt><trkpt lat="42.77344098794452" lon="10.171189684036673"><ele>878.0</ele><time>2026-05-01T16:17:59.998Z</time></trkpt><trkpt lat="42.773499908366595" lon="10.171250176948677"><ele>872.0</ele><time>2026-05-01T16:18:11Z</time></trkpt><trkpt lat="42.773551905706555" lon="10.171299414308148"><ele>866.0</ele><time>2026-05-01T16:18:18Z</time></trkpt><trkpt lat="42.77360216511899" lon="10.171362696660516"><ele>864.9999999999999</ele><time>2026-05-01T16:18:26Z</time></trkpt><trkpt lat="42.77364784124367" lon="10.17142322657833"><ele>864.0</ele><time>2026-05-01T16:18:34Z</time></trkpt><trkpt lat="42.77370658904102" lon="10.17150137923986"><ele>863.0</ele><time>2026-05-01T16:18:43.999Z</time></trkpt><trkpt lat="42.7737698064211" lon="10.171540632889513"><ele>862.0</ele><time>2026-05-01T16:18:48.999Z</time></trkpt><trkpt lat="42.77383518346096" lon="10.171582694836907"><ele>861.0</ele><time>2026-05-01T16:18:54.999Z</time></trkpt><trkpt lat="42.773904913669675" lon="10.171598760403938"><ele>859.9999999999999</ele><time>2026-05-01T16:18:59.999Z</time></trkpt><trkpt lat="42.77397686807406" lon="10.171624412721506"><ele>859.0</ele><time>2026-05-01T16:19:07.999Z</time></trkpt><trkpt lat="42.77403740266305" lon="10.171648899800438"><ele>854.2857142857142</ele><time>2026-05-01T16:19:13.999Z</time></trkpt><trkpt lat="42.7740925755925" lon="10.171693306166862"><ele>849.5714285714286</ele><time>2026-05-01T16:19:22.999Z</time></trkpt><trkpt lat="42.774137664767466" lon="10.171769010540887"><ele>844.8571428571429</ele><time>2026-05-01T16:19:32.999Z</time></trkpt><trkpt lat="42.77418575481869" lon="10.17183623490523"><ele>840.1428571428571</ele><time>2026-05-01T16:19:41.998Z</time></trkpt><trkpt lat="42.77424055949079" lon="10.17188150296272"><ele>835.4285714285714</ele><time>2026-05-01T16:19:49.998Z</time></trkpt><trkpt lat="42.77428407819157" lon="10.171959250930767"><ele>830.7142857142857</ele><time>2026-05-01T16:19:55.998Z</time></trkpt><trkpt lat="42.77433650083814" lon="10.172009976399462"><ele>826.0</ele><time>2026-05-01T16:20:02.998Z</time></trkpt><trkpt lat="42.77440613642341" lon="10.172016124214444"><ele>822.1428571428571</ele><time>2026-05-01T16:20:08.998Z</time></trkpt><trkpt lat="42.774477945316114" lon="10.1720196559323"><ele>818.2857142857142</ele><time>2026-05-01T16:20:23Z</time></trkpt><trkpt lat="42.774522800896726" lon="10.17209102690375"><ele>814.4285714285714</ele><time>2026-05-01T16:20:43.999Z</time></trkpt><trkpt lat="42.77456375114654" lon="10.172173411254027"><ele>810.5714285714286</ele><time>2026-05-01T16:21:05.999Z</time></trkpt><trkpt lat="42.77461550663174" lon="10.172225561836795"><ele>806.7142857142857</ele><time>2026-05-01T16:21:13.999Z</time></trkpt><trkpt lat="42.77466516322845" lon="10.172287952216497"><ele>802.8571428571429</ele><time>2026-05-01T16:21:28.999Z</time></trkpt><trkpt lat="42.774732132144706" lon="10.172324313233299"><ele>799.0</ele><time>2026-05-01T16:21:35.999Z</time></trkpt><trkpt lat="42.77480677993762" lon="10.172343644019065"><ele>796.5714285714286</ele><time>2026-05-01T16:22:10.998Z</time></trkpt><trkpt lat="42.774845334008084" lon="10.172428430292804"><ele>794.1428571428571</ele><time>2026-05-01T16:22:31Z</time></trkpt><trkpt lat="42.7748762269874" lon="10.172513344542251"><ele>791.7142857142857</ele><time>2026-05-01T16:22:46.999Z</time></trkpt><trkpt lat="42.774954842121325" lon="10.172530915664145"><ele>789.2857142857142</ele><time>2026-05-01T16:22:53.999Z</time></trkpt><trkpt lat="42.775022759402" lon="10.172507687955406"><ele>786.8571428571429</ele><time>2026-05-01T16:23:06.999Z</time></trkpt><trkpt lat="42.77507009287903" lon="10.172575702646908"><ele>784.4285714285713</ele><time>2026-05-01T16:23:14.999Z</time></trkpt><trkpt lat="42.77513854720431" lon="10.172611188906908"><ele>782.0</ele><time>2026-05-01T16:23:22.999Z</time></trkpt><trkpt lat="42.77520256376106" lon="10.172628331444955"><ele>775.1428571428571</ele><time>2026-05-01T16:23:34.999Z</time></trkpt><trkpt lat="42.77523952713106" lon="10.172699654090986"><ele>768.2857142857142</ele><time>2026-05-01T16:23:42.999Z</time></trkpt><trkpt lat="42.77531313799523" lon="10.172725575529801"><ele>761.4285714285713</ele><time>2026-05-01T16:23:52.998Z</time></trkpt><trkpt lat="42.77534338912292" lon="10.172804309076392"><ele>754.5714285714286</ele><time>2026-05-01T16:24:07.998Z</time></trkpt><trkpt lat="42.77535237353236" lon="10.172893967076241"><ele>747.7142857142858</ele><time>2026-05-01T16:24:15.998Z</time></trkpt><trkpt lat="42.77536801021966" lon="10.172987304296718"><ele>740.8571428571428</ele><time>2026-05-01T16:24:23.998Z</time></trkpt><trkpt lat="42.7753870511645" lon="10.173079565932081"><ele>734.0</ele><time>2026-05-01T16:24:33Z</time></trkpt><trkpt lat="42.77542487170433" lon="10.173160892727251"><ele>734.2857142857142</ele><time>2026-05-01T16:24:41Z</time></trkpt><trkpt lat="42.77546538758246" lon="10.17323283996007"><ele>734.5714285714287</ele><time>2026-05-01T16:24:49Z</time></trkpt><trkpt lat="42.7754931099964" lon="10.173311404817083"><ele>734.8571428571429</ele><time>2026-05-01T16:25:01.999Z</time></trkpt><trkpt lat="42.775491957756834" lon="10.173398675272784"><ele>735.1428571428571</ele><time>2026-05-01T16:25:08.999Z</time></trkpt><trkpt lat="42.77549407785971" lon="10.17349176497956"><ele>735.4285714285713</ele><time>2026-05-01T16:25:21.999Z</time></trkpt><trkpt lat="42.77547590613186" lon="10.173579880482999"><ele>735.7142857142858</ele><time>2026-05-01T16:25:30.999Z</time></trkpt><trkpt lat="42.775526901666964" lon="10.173631159925732"><ele>736.0</ele><time>2026-05-01T16:25:37.999Z</time></trkpt><trkpt lat="42.775571924620195" lon="10.173699352167562"><ele>736.0</ele><time>2026-05-01T16:25:43.999Z</time></trkpt><trkpt lat="42.775637402100934" lon="10.173749421875154"><ele>736.0</ele><time>2026-05-01T16:25:52.999Z</time></trkpt><trkpt lat="42.775672916998836" lon="10.173830475795473"><ele>736.0</ele><time>2026-05-01T16:26:00.998Z</time></trkpt><trkpt lat="42.775738061867166" lon="10.17384068341955"><ele>736.0</ele><time>2026-05-01T16:26:07.998Z</time></trkpt><trkpt lat="42.77579203590173" lon="10.17388578651257"><ele>736.0</ele><time>2026-05-01T16:26:20.998Z</time></trkpt><trkpt lat="42.77583555212539" lon="10.173955788564902"><ele>736.0</ele><time>2026-05-01T16:26:26.998Z</time></trkpt><trkpt lat="42.7758862039624" lon="10.174045072081704"><ele>736.0</ele><time>2026-05-01T16:26:35Z</time></trkpt><trkpt lat="42.77592841929317" lon="10.174124446866468"><ele>735.8571428571429</ele><time>2026-05-01T16:26:42Z</time></trkpt><trkpt lat="42.77598168718817" lon="10.174176224115863"><ele>735.7142857142857</ele><time>2026-05-01T16:26:49Z</time></trkpt><trkpt lat="42.77604956550517" lon="10.174138884217331"><ele>735.5714285714286</ele><time>2026-05-01T16:26:55.999Z</time></trkpt><trkpt lat="42.77601405069022" lon="10.174049987500116"><ele>735.4285714285714</ele><time>2026-05-01T16:27:16.999Z</time></trkpt><trkpt lat="42.77602572486925" lon="10.17396388854605"><ele>735.2857142857142</ele><time>2026-05-01T16:27:23.999Z</time></trkpt><trkpt lat="42.7760254146324" lon="10.17387379315222"><ele>735.1428571428571</ele><time>2026-05-01T16:27:32.999Z</time></trkpt><trkpt lat="42.776040354696825" lon="10.1737896441097"><ele>735.0</ele><time>2026-05-01T16:27:43.999Z</time></trkpt><trkpt lat="42.77606041796922" lon="10.173708208011414"><ele>728.0</ele><time>2026-05-01T16:27:52.999Z</time></trkpt><trkpt lat="42.776112737318684" lon="10.17365970290877"><ele>721.0</ele><time>2026-05-01T16:28:17.998Z</time></trkpt><trkpt lat="42.77614263201777" lon="10.173581594278236"><ele>714.0</ele><time>2026-05-01T16:28:27.998Z</time></trkpt><trkpt lat="42.77613997687497" lon="10.17348400577853"><ele>707.0</ele><time>2026-05-01T16:28:41Z</time></trkpt><trkpt lat="42.77617483719708" lon="10.173408055773752"><ele>700.0</ele><time>2026-05-01T16:28:54Z</time></trkpt><trkpt lat="42.77618261024474" lon="10.17331556571717"><ele>693.0</ele><time>2026-05-01T16:29:06.999Z</time></trkpt><trkpt lat="42.77620781033262" lon="10.173227036313898"><ele>686.0</ele><time>2026-05-01T16:29:16.999Z</time></trkpt><trkpt lat="42.77626418222071" lon="10.17326607133258"><ele>686.5714285714286</ele><time>2026-05-01T16:29:30.999Z</time></trkpt><trkpt lat="42.77630522656062" lon="10.173186429585435"><ele>687.1428571428571</ele><time>2026-05-01T16:29:41.999Z</time></trkpt><trkpt lat="42.77633432261811" lon="10.173091525218652"><ele>687.7142857142858</ele><time>2026-05-01T16:29:51.999Z</time></trkpt><trkpt lat="42.77639895284537" lon="10.173097627375206"><ele>688.2857142857142</ele><time>2026-05-01T16:30:14.998Z</time></trkpt><trkpt lat="42.77647068875312" lon="10.17310107653876"><ele>688.8571428571429</ele><time>2026-05-01T16:30:29.998Z</time></trkpt><trkpt lat="42.77651250149447" lon="10.17302415848973"><ele>689.4285714285714</ele><time>2026-05-01T16:30:55Z</time></trkpt><trkpt lat="42.77657528720342" lon="10.1730321978648"><ele>690.0</ele><time>2026-05-01T16:31:07.999Z</time></trkpt><trkpt lat="42.776650564007966" lon="10.173090960898323"><ele>690.0</ele><time>2026-05-01T16:31:25.999Z</time></trkpt><trkpt lat="42.77670654108811" lon="10.173142340119446"><ele>690.0</ele><time>2026-05-01T16:31:42.999Z</time></trkpt><trkpt lat="42.77678181889332" lon="10.173161483088855"><ele>690.0</ele><time>2026-05-01T16:32:09.999Z</time></trkpt><trkpt lat="42.77684197228428" lon="10.173108253549161"><ele>690.0</ele><time>2026-05-01T16:32:24.998Z</time></trkpt><trkpt lat="42.776892298658915" lon="10.173055842574794"><ele>690.0</ele><time>2026-05-01T16:32:36.998Z</time></trkpt><trkpt lat="42.776955757810455" lon="10.173071727573065"><ele>690.0</ele><time>2026-05-01T16:33:02Z</time></trkpt><trkpt lat="42.77702802627125" lon="10.173050178287719"><ele>690.0</ele><time>2026-05-01T16:33:12.999Z</time></trkpt><trkpt lat="42.77710347139637" lon="10.173031633309439"><ele>684.5</ele><time>2026-05-01T16:33:37.999Z</time></trkpt><trkpt lat="42.77718728901741" lon="10.172999581043925"><ele>679.0</ele><time>2026-05-01T16:34:02.999Z</time></trkpt><trkpt lat="42.77726169081041" lon="10.172982354234149"><ele>673.5</ele><time>2026-05-01T16:34:27.998Z</time></trkpt><trkpt lat="42.77735062877791" lon="10.172970268832932"><ele>668.0</ele><time>2026-05-01T16:35:54.999Z</time></trkpt><trkpt lat="42.77741513233951" lon="10.172921725967873"><ele>662.5</ele><time>2026-05-01T16:36:05.999Z</time></trkpt><trkpt lat="42.77749013696133" lon="10.172862447753976"><ele>657.0</ele><time>2026-05-01T16:36:29.998Z</time></trkpt><trkpt lat="42.77756766248275" lon="10.172906001876967"><ele>657.0</ele><time>2026-05-01T16:36:53.998Z</time></trkpt><trkpt lat="42.77763498305879" lon="10.17290194617864"><ele>657.0</ele><time>2026-05-01T16:37:02Z</time></trkpt><trkpt lat="42.77769979259343" lon="10.172917722074109"><ele>657.0</ele><time>2026-05-01T16:37:14Z</time></trkpt><trkpt lat="42.7777609335346" lon="10.172953403487321"><ele>657.0</ele><time>2026-05-01T16:37:25.999Z</time></trkpt><trkpt lat="42.77783251720049" lon="10.172977628304558"><ele>657.0</ele><time>2026-05-01T16:37:36.999Z</time></trkpt><trkpt lat="42.77790913389527" lon="10.172971803526444"><ele>657.0</ele><time>2026-05-01T16:37:50.999Z</time></trkpt><trkpt lat="42.777981902127905" lon="10.172993619453832"><ele>657.0</ele><time>2026-05-01T16:38:01.999Z</time></trkpt><trkpt lat="42.77804065019174" lon="10.17295806793163"><ele>651.5714285714286</ele><time>2026-05-01T16:38:06.999Z</time></trkpt><trkpt lat="42.77811069841899" lon="10.172931425141616"><ele>646.1428571428572</ele><time>2026-05-01T16:38:12.999Z</time></trkpt><trkpt lat="42.778163551664875" lon="10.172876522238981"><ele>640.7142857142858</ele><time>2026-05-01T16:38:17.999Z</time></trkpt><trkpt lat="42.77822561955933" lon="10.172832376105468"><ele>635.2857142857142</ele><time>2026-05-01T16:38:24.999Z</time></trkpt><trkpt lat="42.778291232135786" lon="10.172831416637504"><ele>629.8571428571429</ele><time>2026-05-01T16:38:33.998Z</time></trkpt><trkpt lat="42.7783561262128" lon="10.172833558769238"><ele>624.4285714285714</ele><time>2026-05-01T16:38:39.998Z</time></trkpt><trkpt lat="42.77841515306778" lon="10.17279095253953"><ele>619.0</ele><time>2026-05-01T16:38:46.998Z</time></trkpt><trkpt lat="42.778479877834165" lon="10.172762253125564"><ele>614.1428571428571</ele><time>2026-05-01T16:38:53.998Z</time></trkpt><trkpt lat="42.77854651517891" lon="10.172736721137905"><ele>609.2857142857143</ele><time>2026-05-01T16:39:00.998Z</time></trkpt><trkpt lat="42.77860103864373" lon="10.172678790910586"><ele>604.4285714285714</ele><time>2026-05-01T16:39:08Z</time></trkpt><trkpt lat="42.778662407718244" lon="10.17264184487955"><ele>599.5714285714286</ele><time>2026-05-01T16:39:15Z</time></trkpt><trkpt lat="42.778729252076886" lon="10.172629666242916"><ele>594.7142857142857</ele><time>2026-05-01T16:39:22Z</time></trkpt><trkpt lat="42.77879949290456" lon="10.172596642904606"><ele>589.8571428571429</ele><time>2026-05-01T16:39:29.999Z</time></trkpt><trkpt lat="42.77886452583703" lon="10.172596231271726"><ele>585.0</ele><time>2026-05-01T16:41:06.998Z</time></trkpt><trkpt lat="42.77893032388121" lon="10.17259918178944"><ele>585.0</ele><time>2026-05-01T16:41:15Z</time></trkpt><trkpt lat="42.778982826155485" lon="10.172546285499909"><ele>585.0</ele><time>2026-05-01T16:41:25Z</time></trkpt><trkpt lat="42.77905642892566" lon="10.172520819500562"><ele>585.0</ele><time>2026-05-01T16:41:46.999Z</time></trkpt><trkpt lat="42.77913566794011" lon="10.172533453007109"><ele>585.0</ele><time>2026-05-01T16:41:56.999Z</time></trkpt><trkpt lat="42.779204064922304" lon="10.172533644824645"><ele>585.0</ele><time>2026-05-01T16:42:14.999Z</time></trkpt><trkpt lat="42.7792694994059" lon="10.172532496510248"><ele>585.0</ele><time>2026-05-01T16:42:23.999Z</time></trkpt><trkpt lat="42.77933623781803" lon="10.172555563922208"><ele>585.0</ele><time>2026-05-01T16:42:30.999Z</time></trkpt><trkpt lat="42.779405679369816" lon="10.17256329758086"><ele>582.2857142857143</ele><time>2026-05-01T16:42:36.999Z</time></trkpt><trkpt lat="42.77946290494058" lon="10.172514982426115"><ele>579.5714285714286</ele><time>2026-05-01T16:42:42.998Z</time></trkpt><trkpt lat="42.77952914220906" lon="10.17252120522102"><ele>576.8571428571429</ele><time>2026-05-01T16:42:47.998Z</time></trkpt><trkpt lat="42.779585927432194" lon="10.172468565555924"><ele>574.1428571428571</ele><time>2026-05-01T16:42:53.998Z</time></trkpt><trkpt lat="42.77966418100584" lon="10.172440088893905"><ele>571.4285714285714</ele><time>2026-05-01T16:42:59.998Z</time></trkpt><trkpt lat="42.77972135054242" lon="10.172391106093471"><ele>568.7142857142858</ele><time>2026-05-01T16:43:04.998Z</time></trkpt><trkpt lat="42.779776310710204" lon="10.172326276594031"><ele>566.0</ele><time>2026-05-01T16:43:09.998Z</time></trkpt><trkpt lat="42.77981875905788" lon="10.172254142667047"><ele>566.0</ele><time>2026-05-01T16:43:15.998Z</time></trkpt><trkpt lat="42.77986221343663" lon="10.172186271316507"><ele>566.0</ele><time>2026-05-01T16:43:20.999Z</time></trkpt><trkpt lat="42.77990722121808" lon="10.17212071494878"><ele>566.0</ele><time>2026-05-01T16:43:26.999Z</time></trkpt><trkpt lat="42.77994899085744" lon="10.172052984096068"><ele>566.0</ele><time>2026-05-01T16:43:33.999Z</time></trkpt><trkpt lat="42.779966563528944" lon="10.171968887299066"><ele>566.0</ele><time>2026-05-01T16:43:45.999Z</time></trkpt><trkpt lat="42.78000528901932" lon="10.171895079247486"><ele>566.0</ele><time>2026-05-01T16:43:53.999Z</time></trkpt><trkpt lat="42.780037310896226" lon="10.1718124607567"><ele>566.0</ele><time>2026-05-01T16:44:01.999Z</time></trkpt><trkpt lat="42.780055146067035" lon="10.17170826542011"><ele>566.0</ele><time>2026-05-01T16:44:14.999Z</time></trkpt><trkpt lat="42.78006448892182" lon="10.171615400903526"><ele>566.0</ele><time>2026-05-01T16:44:20.999Z</time></trkpt><trkpt lat="42.780069158250186" lon="10.17152183643595"><ele>566.0</ele><time>2026-05-01T16:44:28.999Z</time></trkpt><trkpt lat="42.78006651008494" lon="10.171431878800263"><ele>566.0</ele><time>2026-05-01T16:44:34.999Z</time></trkpt><trkpt lat="42.780046638701016" lon="10.171348311537496"><ele>566.0</ele><time>2026-05-01T16:44:40.999Z</time></trkpt><trkpt lat="42.7800490187715" lon="10.17125981038866"><ele>566.0</ele><time>2026-05-01T16:44:48.998Z</time></trkpt><trkpt lat="42.78005163018449" lon="10.17117221267581"><ele>566.0</ele><time>2026-05-01T16:45:03.998Z</time></trkpt><trkpt lat="42.78005335709304" lon="10.171071750297125"><ele>566.5714285714286</ele><time>2026-05-01T16:45:11.998Z</time></trkpt><trkpt lat="42.78006422884737" lon="10.170985850319607"><ele>567.1428571428572</ele><time>2026-05-01T16:45:18.998Z</time></trkpt><trkpt lat="42.780066567922816" lon="10.170894565065957"><ele>567.7142857142858</ele><time>2026-05-01T16:45:27.999Z</time></trkpt><trkpt lat="42.780099471608544" lon="10.170800187047428"><ele>568.2857142857143</ele><time>2026-05-01T16:45:33.999Z</time></trkpt><trkpt lat="42.78016070547295" lon="10.170769972293831"><ele>568.8571428571429</ele><time>2026-05-01T16:45:41.999Z</time></trkpt><trkpt lat="42.78022115238992" lon="10.170744507383196"><ele>569.4285714285714</ele><time>2026-05-01T16:45:46.999Z</time></trkpt><trkpt lat="42.780277351242525" lon="10.170694106902332"><ele>570.0</ele><time>2026-05-01T16:45:51.999Z</time></trkpt><trkpt lat="42.780346440760326" lon="10.17067079641411"><ele>566.1428571428571</ele><time>2026-05-01T16:45:57.999Z</time></trkpt><trkpt lat="42.780400735461804" lon="10.17061925711418"><ele>562.2857142857143</ele><time>2026-05-01T16:46:02.999Z</time></trkpt><trkpt lat="42.78045946817242" lon="10.170555066350376"><ele>558.4285714285714</ele><time>2026-05-01T16:46:08.999Z</time></trkpt><trkpt lat="42.7805057791152" lon="10.170485510916505"><ele>554.5714285714286</ele><time>2026-05-01T16:46:15.999Z</time></trkpt><trkpt lat="42.7805405193604" lon="10.170413367446473"><ele>550.7142857142857</ele><time>2026-05-01T16:46:24.999Z</time></trkpt><trkpt lat="42.78057812753327" lon="10.170316908756305"><ele>546.8571428571429</ele><time>2026-05-01T16:46:30.999Z</time></trkpt><trkpt lat="42.78063380888555" lon="10.170247540872444"><ele>543.0</ele><time>2026-05-01T16:46:36.999Z</time></trkpt><trkpt lat="42.780650178386175" lon="10.170153763094032"><ele>543.0</ele><time>2026-05-01T16:46:43.999Z</time></trkpt><trkpt lat="42.78068761895987" lon="10.170074283441359"><ele>543.0</ele><time>2026-05-01T16:46:51.999Z</time></trkpt><trkpt lat="42.78072195613954" lon="10.1699922144725"><ele>543.0</ele><time>2026-05-01T16:47:11.998Z</time></trkpt><trkpt lat="42.780749140728325" lon="10.1699098087581"><ele>543.0</ele><time>2026-05-01T16:47:18.998Z</time></trkpt><trkpt lat="42.78079722442942" lon="10.169840866924696"><ele>543.0</ele><time>2026-05-01T16:47:23.998Z</time></trkpt><trkpt lat="42.78084989075712" lon="10.169783038577961"><ele>543.0</ele><time>2026-05-01T16:47:33Z</time></trkpt><trkpt lat="42.78089924352083" lon="10.169727331246923"><ele>543.0</ele><time>2026-05-01T16:47:41Z</time></trkpt><trkpt lat="42.7809477496934" lon="10.169651143028139"><ele>543.5714285714286</ele><time>2026-05-01T16:47:49Z</time></trkpt><trkpt lat="42.780994436887646" lon="10.16958059702727"><ele>544.1428571428571</ele><time>2026-05-01T16:47:52.999Z</time></trkpt><trkpt lat="42.78102075714115" lon="10.169493686700038"><ele>544.7142857142857</ele><time>2026-05-01T16:47:58.999Z</time></trkpt><trkpt lat="42.781056015695356" lon="10.169419278716697"><ele>545.2857142857142</ele><time>2026-05-01T16:48:04.999Z</time></trkpt><trkpt lat="42.78107029715024" lon="10.169334256574357"><ele>545.8571428571428</ele><time>2026-05-01T16:48:10.999Z</time></trkpt><trkpt lat="42.781105776965724" lon="10.169260637146877"><ele>546.4285714285714</ele><time>2026-05-01T16:48:18.999Z</time></trkpt><trkpt lat="42.78111829899188" lon="10.169175529219233"><ele>547.0</ele><time>2026-05-01T16:48:24.999Z</time></trkpt><trkpt lat="42.781153278641575" lon="10.169098512611471"><ele>545.1428571428571</ele><time>2026-05-01T16:48:28.999Z</time></trkpt><trkpt lat="42.78119781193533" lon="10.169035908172543"><ele>543.2857142857142</ele><time>2026-05-01T16:48:35.999Z</time></trkpt><trkpt lat="42.781241672064496" lon="10.168963949046255"><ele>541.4285714285714</ele><time>2026-05-01T16:48:42.999Z</time></trkpt><trkpt lat="42.78129834389577" lon="10.168891484116322"><ele>539.5714285714286</ele><time>2026-05-01T16:48:48.999Z</time></trkpt><trkpt lat="42.781351037046285" lon="10.16883983105874"><ele>537.7142857142858</ele><time>2026-05-01T16:48:52.999Z</time></trkpt><trkpt lat="42.78139553715664" lon="10.168759671679089"><ele>535.8571428571429</ele><time>2026-05-01T16:48:58.999Z</time></trkpt><trkpt lat="42.78141930200965" lon="10.168679277993144"><ele>534.0</ele><time>2026-05-01T16:49:03.998Z</time></trkpt><trkpt lat="42.78143564569022" lon="10.168590153966681"><ele>534.0000000000001</ele><time>2026-05-01T16:49:13.998Z</time></trkpt><trkpt lat="42.7814809025844" lon="10.168510202896105"><ele>534.0</ele><time>2026-05-01T16:49:19.998Z</time></trkpt><trkpt lat="42.78152780865235" lon="10.168452518101983"><ele>534.0</ele><time>2026-05-01T16:49:24.998Z</time></trkpt><trkpt lat="42.78153060520198" lon="10.168352651284481"><ele>534.0</ele><time>2026-05-01T16:49:30.998Z</time></trkpt><trkpt lat="42.78154620555061" lon="10.1682674896563"><ele>534.0</ele><time>2026-05-01T16:49:36.999Z</time></trkpt><trkpt lat="42.781584127585845" lon="10.168192298480273"><ele>534.0000000000001</ele><time>2026-05-01T16:49:42.999Z</time></trkpt><trkpt lat="42.781607373182275" lon="10.168104764526323"><ele>534.0</ele><time>2026-05-01T16:49:50.999Z</time></trkpt><trkpt lat="42.781613854361204" lon="10.168006119077505"><ele>532.7142857142858</ele><time>2026-05-01T16:49:54.999Z</time></trkpt><trkpt lat="42.78162336328726" lon="10.167920756041013"><ele>531.4285714285714</ele><time>2026-05-01T16:50:00.999Z</time></trkpt><trkpt lat="42.78160504453396" lon="10.167828736998047"><ele>530.1428571428571</ele><time>2026-05-01T16:50:09.999Z</time></trkpt><trkpt lat="42.78160183733014" lon="10.167723237044106"><ele>528.8571428571429</ele><time>2026-05-01T16:50:17.999Z</time></trkpt><trkpt lat="42.78159257062869" lon="10.167621470873637"><ele>527.5714285714286</ele><time>2026-05-01T16:50:22.999Z</time></trkpt><trkpt lat="42.78161026762124" lon="10.167536710237203"><ele>526.2857142857143</ele><time>2026-05-01T16:50:27.999Z</time></trkpt><trkpt lat="42.78158793363066" lon="10.167448718282566"><ele>525.0</ele><time>2026-05-01T16:50:41.999Z</time></trkpt><trkpt lat="42.78157672086509" lon="10.16735922180449"><ele>522.1428571428571</ele><time>2026-05-01T16:50:46.999Z</time></trkpt><trkpt lat="42.78164847806987" lon="10.167323682735228"><ele>519.2857142857142</ele><time>2026-05-01T16:51:03.998Z</time></trkpt><trkpt lat="42.78171418652987" lon="10.167314133747002"><ele>516.4285714285714</ele><time>2026-05-01T16:51:07.998Z</time></trkpt><trkpt lat="42.78178039815897" lon="10.167315277126285"><ele>513.5714285714286</ele><time>2026-05-01T16:51:17.998Z</time></trkpt><trkpt lat="42.78185792934331" lon="10.16730585033452"><ele>510.71428571428567</ele><time>2026-05-01T16:51:33.998Z</time></trkpt><trkpt lat="42.78192011899106" lon="10.16728152110399"><ele>507.85714285714283</ele><time>2026-05-01T16:51:47.999Z</time></trkpt><trkpt lat="42.7819844255073" lon="10.167282902809736"><ele>505.0</ele><time>2026-05-01T16:52:01.999Z</time></trkpt><trkpt lat="42.78205422616965" lon="10.167300102397771"><ele>503.0</ele><time>2026-05-01T16:52:16.999Z</time></trkpt><trkpt lat="42.7820759880243" lon="10.167209129706077"><ele>500.99999999999994</ele><time>2026-05-01T16:52:44.999Z</time></trkpt><trkpt lat="42.782140778083445" lon="10.167185821316018"><ele>499.0</ele><time>2026-05-01T16:53:02.999Z</time></trkpt><trkpt lat="42.78219043623941" lon="10.167246227631518"><ele>497.0</ele><time>2026-05-01T16:53:20.998Z</time></trkpt><trkpt lat="42.782251640127704" lon="10.167336821271128"><ele>494.99999999999994</ele><time>2026-05-01T16:53:31.998Z</time></trkpt><trkpt lat="42.78229385575355" lon="10.167415356236491"><ele>493.0</ele><time>2026-05-01T16:53:38.998Z</time></trkpt><trkpt lat="42.78235804291849" lon="10.167449760463585"><ele>491.0</ele><time>2026-05-01T16:53:56Z</time></trkpt><trkpt lat="42.78242300544202" lon="10.167435487852526"><ele>491.0</ele><time>2026-05-01T16:54:10.999Z</time></trkpt><trkpt lat="42.78249160692743" lon="10.167425530086014"><ele>490.99999999999994</ele><time>2026-05-01T16:54:35.999Z</time></trkpt><trkpt lat="42.782555471973986" lon="10.16741813809357"><ele>491.0</ele><time>2026-05-01T16:54:50.999Z</time></trkpt><trkpt lat="42.78255699153783" lon="10.167303818105323"><ele>491.0</ele><time>2026-05-01T16:55:50.998Z</time></trkpt><trkpt lat="42.782599699295574" lon="10.167216658290634"><ele>490.99999999999994</ele><time>2026-05-01T16:56:05Z</time></trkpt><trkpt lat="42.782592494969506" lon="10.167128327185742"><ele>491.0</ele><time>2026-05-01T16:56:13Z</time></trkpt><trkpt lat="42.78266665999744" lon="10.167091739977488"><ele>491.0</ele><time>2026-05-01T16:56:44.999Z</time></trkpt><trkpt lat="42.782733366790374" lon="10.167040845229742"><ele>481.66666666666663</ele><time>2026-05-01T16:57:10.999Z</time></trkpt><trkpt lat="42.782806993228945" lon="10.167055710515196"><ele>472.3333333333333</ele><time>2026-05-01T16:57:27.998Z</time></trkpt><trkpt lat="42.78287147802907" lon="10.167057492982519"><ele>463.0</ele><time>2026-05-01T16:57:46.998Z</time></trkpt><trkpt lat="42.7829307819763" lon="10.167007388300757"><ele>453.66666666666663</ele><time>2026-05-01T16:58:02Z</time></trkpt><trkpt lat="42.78301293512022" lon="10.16703368252407"><ele>444.3333333333333</ele><time>2026-05-01T16:58:31.999Z</time></trkpt><trkpt lat="42.78305966818556" lon="10.167093684755955"><ele>435.0</ele><time>2026-05-01T16:58:53.999Z</time></trkpt><trkpt lat="42.783146326463076" lon="10.167027771527318"><ele>435.00000000000006</ele><time>2026-05-01T16:59:22.999Z</time></trkpt><trkpt lat="42.78312044464833" lon="10.166937751292393"><ele>435.0</ele><time>2026-05-01T16:59:35.998Z</time></trkpt><trkpt lat="42.78318922339179" lon="10.166879300629384"><ele>435.0</ele><time>2026-05-01T17:00:07Z</time></trkpt><trkpt lat="42.7832560506512" lon="10.166837291842285"><ele>435.0</ele><time>2026-05-01T17:00:28.999Z</time></trkpt><trkpt lat="42.7833227191012" lon="10.166834513840184"><ele>435.0</ele><time>2026-05-01T17:00:41.999Z</time></trkpt><trkpt lat="42.7833799835181" lon="10.166784606080732"><ele>435.00000000000006</ele><time>2026-05-01T17:01:28.999Z</time></trkpt><trkpt lat="42.78344598556437" lon="10.16678878825313"><ele>435.0</ele><time>2026-05-01T17:01:42.998Z</time></trkpt><trkpt lat="42.78351553879258" lon="10.166763487460095"><ele>429.7142857142857</ele><time>2026-05-01T17:02:02.998Z</time></trkpt><trkpt lat="42.78356553334681" lon="10.16670410635237"><ele>424.42857142857144</ele><time>2026-05-01T17:02:11Z</time></trkpt><trkpt lat="42.783602042501784" lon="10.166632248402491"><ele>419.1428571428571</ele><time>2026-05-01T17:02:55.999Z</time></trkpt><trkpt lat="42.78365575750388" lon="10.166578288544436"><ele>413.8571428571429</ele><time>2026-05-01T17:03:10.999Z</time></trkpt><trkpt lat="42.783705742663" lon="10.166635644034681"><ele>408.57142857142856</ele><time>2026-05-01T17:03:19.999Z</time></trkpt><trkpt lat="42.78377225767862" lon="10.1666069131382"><ele>403.2857142857143</ele><time>2026-05-01T17:03:29.999Z</time></trkpt><trkpt lat="42.78383745796541" lon="10.166626890346311"><ele>398.0</ele><time>2026-05-01T17:03:46.998Z</time></trkpt><trkpt lat="42.783902490143795" lon="10.166615116258173"><ele>397.99999999999994</ele><time>2026-05-01T17:03:59.998Z</time></trkpt><trkpt lat="42.78395773534334" lon="10.16666269517561"><ele>398.0</ele><time>2026-05-01T17:04:08.998Z</time></trkpt><trkpt lat="42.783975168918865" lon="10.166751669643766"><ele>398.0</ele><time>2026-05-01T17:04:15.998Z</time></trkpt><trkpt lat="42.784032308047394" lon="10.166806799439884"><ele>398.0</ele><time>2026-05-01T17:04:24Z</time></trkpt><trkpt lat="42.78409500596029" lon="10.166871390506536"><ele>398.0</ele><time>2026-05-01T17:04:32Z</time></trkpt><trkpt lat="42.78416585965356" lon="10.166878362937261"><ele>397.99999999999994</ele><time>2026-05-01T17:04:40.999Z</time></trkpt><trkpt lat="42.78424011603239" lon="10.166898176175662"><ele>398.0</ele><time>2026-05-01T17:04:51.999Z</time></trkpt><trkpt lat="42.78430805685872" lon="10.166935767758604"><ele>393.85714285714283</ele><time>2026-05-01T17:04:59.999Z</time></trkpt><trkpt lat="42.78437793349764" lon="10.166915478380023"><ele>389.7142857142857</ele><time>2026-05-01T17:05:10.999Z</time></trkpt><trkpt lat="42.78445130596909" lon="10.16692892244474"><ele>385.57142857142856</ele><time>2026-05-01T17:05:21.999Z</time></trkpt><trkpt lat="42.7845076787793" lon="10.167001170883243"><ele>381.42857142857144</ele><time>2026-05-01T17:05:34.999Z</time></trkpt><trkpt lat="42.7845675431842" lon="10.16707879937656"><ele>377.2857142857143</ele><time>2026-05-01T17:05:45.998Z</time></trkpt><trkpt lat="42.78462905424725" lon="10.16711163587546"><ele>373.1428571428571</ele><time>2026-05-01T17:05:55.998Z</time></trkpt><trkpt lat="42.78469376674568" lon="10.167090836441105"><ele>369.0</ele><time>2026-05-01T17:06:32Z</time></trkpt><trkpt lat="42.784756498528026" lon="10.167069318401339"><ele>369.0</ele><time>2026-05-01T17:06:40.999Z</time></trkpt><trkpt lat="42.78482471699595" lon="10.16703358892176"><ele>369.0</ele><time>2026-05-01T17:06:54.999Z</time></trkpt><trkpt lat="42.78485140723199" lon="10.166904724144917"><ele>369.0</ele><time>2026-05-01T17:08:05.998Z</time></trkpt><trkpt lat="42.784851537143105" lon="10.166811933070125"><ele>369.0</ele><time>2026-05-01T17:08:12.998Z</time></trkpt><trkpt lat="42.78488448300676" lon="10.166737272441368"><ele>369.0</ele><time>2026-05-01T17:08:24.998Z</time></trkpt><trkpt lat="42.78494762609972" lon="10.166773473065271"><ele>369.0</ele><time>2026-05-01T17:08:36Z</time></trkpt><trkpt lat="42.785013679809865" lon="10.166816453922841"><ele>369.0</ele><time>2026-05-01T17:08:42Z</time></trkpt><trkpt lat="42.78508268302627" lon="10.166851980473687"><ele>369.0</ele><time>2026-05-01T17:08:48.999Z</time></trkpt><trkpt lat="42.78514831451913" lon="10.166888340224112"><ele>369.0</ele><time>2026-05-01T17:08:54.999Z</time></trkpt><trkpt lat="42.785175935650756" lon="10.166971821004797"><ele>369.0</ele><time>2026-05-01T17:09:04.999Z</time></trkpt><trkpt lat="42.785220184027985" lon="10.16703735704515"><ele>355.0</ele><time>2026-05-01T17:09:09.999Z</time></trkpt><trkpt lat="42.78528641356105" lon="10.167048669808336"><ele>355.0</ele><time>2026-05-01T17:09:18.999Z</time></trkpt><trkpt lat="42.78535693852031" lon="10.167053280688062"><ele>355.0</ele><time>2026-05-01T17:09:36.999Z</time></trkpt><trkpt lat="42.785422772998494" lon="10.167103608762783"><ele>355.0</ele><time>2026-05-01T17:09:44.999Z</time></trkpt></trkseg></trk></gpx>